Share

Texhoma, OK

Dalhart Municipal (KDHT) Elev 3990 ft | 36.03 °N, 102.55 °W | Change Station

Current weather conditions updated 9 minutes ago

Overcast
Overcast
44 °F
Feels Like 36 °F
N
18
Wind Variable Wind from NNE
Sunrise 7:10 AM
Sunset 8:23 PM
Moon Waning Gibbous

Today is forecast to be Much Cooler than yesterday. A few morning showers.

Pressure 30.06 in
Visibility 10.0 miles
Clouds Overcast 5500 ft
Windchill 36 °F
Dew Point 32 °F
Humidity 63%
Rainfall 0.00 in
Snow Depth Not available.
UV 0 out of 16
Pollen 6.80 out of 12
Air Quality Not available.
Flu Activity Regional
METAR KDHT 171153Z AUTO 02016KT 10SM OVC055 07/00 A3013 RMK AO2 SLP180 T00670000 10100 20056 53017

More Conditions Fewer Conditions

Pressure 30.06 in
Visibility 10.0 miles
Clouds Overcast 5500 ft
Windchill 36 °F
Dew Point 32 °F
Humidity 63%
Rainfall 0.00 in
Snow Depth Not available.
UV 0 out of 16
Pollen 6.80 out of 12
Air Quality Not available.
Flu Activity Regional
METAR KDHT 171153Z AUTO 02016KT 10SM OVC055 07/00 A3013 RMK AO2 SLP180 T00670000 10100 20056 53017

More Conditions Fewer Conditions

10-Day Forecast

Almanac

Astronomy

Apr. 17, 2014 Rise Set
Actual Time 7:10 AM CDT 8:23 PM CDT
Civil Twilight 6:44 AM CDT 8:49 PM CDT
Nautical Twilight 6:12 AM CDT 9:21 PM CDT
Astronomical Twilight 5:39 AM CDT 9:55 PM CDT
Moon 11:07 PM CDT 8:47 AM CDT
Length of Visible Light 14h 05m
Length of Day
13h 12m
Tomorrow will be 2m 11s longer.
Waning Gibbous, 94% of the Moon is Illuminated
Today
Waning Gibbous
Apr 22
Last Quarter
Apr 29
New
May 6
First Quarter
May 14
Full

Today's Extremes

State Highs State Lows

Community

  • sunset from izmir, narlıdere
    sunset from izmir, narlıdere
  • Sunset over the Bay
    Sunset over the Bay
  • Sunrise Serenade
    Sunrise Serenade
  • symphony in blue....
    symphony in blue....
  • Dawn Surprise
    Dawn Surprise

WunderPhotos

Upload Photos

1,701,928 photos uploaded!

Nearby

Snow Depth

Station Depth Elevation
No new snow has been reported.

Coastal Water Temperatures

Place Temperature
No Stations Reporting

Earthquake Activity

City Distance Mag. Time & Date
No recent earthquake activity has been reported nearby.
Minimum magnitude displayed is 2.5.

Nearby Weather Stations

Station Location Temp. Windchill Dew Point Humidity Wind Precip. Elev Updated Type
MesoWest TXHOMA , Texhoma, OK 44 °F 44 °F - - North  at  - 0.00 in / hr 3499 ft 5:25 AM CDT MADIS
MesoWest GOODWL , Goodwell, OK 43 °F 43 °F - - North  at  - 0.00 in / hr 3228 ft 5:40 AM CDT MADIS

Show More Stations Show Fewer Stations

What do you think?

We're not finished. Please let us know what you like, what you don't like, and what you are still missing.